sensor_id;sensor_type;location;lat;lon;timestamp;temperature;humidity
58363;DHT22;54977;51.510;7.522;2022-08-21T00:03:48;17.50;63.60
58363;DHT22;54977;51.510;7.522;2022-08-21T00:08:50;17.60;63.80
58363;DHT22;54977;51.510;7.522;2022-08-21T00:13:53;17.70;63.50
58363;DHT22;54977;51.510;7.522;2022-08-21T00:18:55;17.70;63.20
58363;DHT22;54977;51.510;7.522;2022-08-21T00:23:57;17.80;63.00
58363;DHT22;54977;51.510;7.522;2022-08-21T00:29:00;17.70;62.90
58363;DHT22;54977;51.510;7.522;2022-08-21T00:34:03;17.60;63.30
58363;DHT22;54977;51.510;7.522;2022-08-21T00:39:06;17.70;63.40
58363;DHT22;54977;51.510;7.522;2022-08-21T00:44:12;17.80;63.30
58363;DHT22;54977;51.510;7.522;2022-08-21T00:49:15;17.70;63.40
58363;DHT22;54977;51.510;7.522;2022-08-21T00:54:18;17.70;63.60
58363;DHT22;54977;51.510;7.522;2022-08-21T00:59:24;17.70;64.30
58363;DHT22;54977;51.510;7.522;2022-08-21T01:04:27;17.70;63.70
58363;DHT22;54977;51.510;7.522;2022-08-21T01:09:29;17.70;63.70
58363;DHT22;54977;51.510;7.522;2022-08-21T01:14:32;17.60;64.10
58363;DHT22;54977;51.510;7.522;2022-08-21T01:19:35;17.50;64.30
58363;DHT22;54977;51.510;7.522;2022-08-21T01:24:38;17.50;64.20
58363;DHT22;54977;51.510;7.522;2022-08-21T01:29:53;17.50;64.50
58363;DHT22;54977;51.510;7.522;2022-08-21T01:34:56;17.60;64.30
58363;DHT22;54977;51.510;7.522;2022-08-21T01:39:59;17.70;64.30
58363;DHT22;54977;51.510;7.522;2022-08-21T01:45:01;17.60;64.40
58363;DHT22;54977;51.510;7.522;2022-08-21T01:50:05;17.70;64.30
58363;DHT22;54977;51.510;7.522;2022-08-21T01:55:10;17.70;64.00
58363;DHT22;54977;51.510;7.522;2022-08-21T02:00:13;17.70;64.10
58363;DHT22;54977;51.510;7.522;2022-08-21T02:05:16;17.80;63.70
58363;DHT22;54977;51.510;7.522;2022-08-21T02:10:23;17.90;63.70
58363;DHT22;54977;51.510;7.522;2022-08-21T02:15:28;17.90;63.40
58363;DHT22;54977;51.510;7.522;2022-08-21T02:20:35;17.80;63.50
58363;DHT22;54977;51.510;7.522;2022-08-21T02:25:39;17.70;63.90
58363;DHT22;54977;51.510;7.522;2022-08-21T02:30:44;17.60;64.30
58363;DHT22;54977;51.510;7.522;2022-08-21T02:35:47;17.50;64.50
58363;DHT22;54977;51.510;7.522;2022-08-21T02:40:55;17.30;64.80
58363;DHT22;54977;51.510;7.522;2022-08-21T02:45:58;17.20;65.10
58363;DHT22;54977;51.510;7.522;2022-08-21T02:51:02;17.10;65.70
58363;DHT22;54977;51.510;7.522;2022-08-21T02:56:08;17.00;65.90
58363;DHT22;54977;51.510;7.522;2022-08-21T03:01:11;16.80;66.30
58363;DHT22;54977;51.510;7.522;2022-08-21T03:06:15;16.80;66.60
58363;DHT22;54977;51.510;7.522;2022-08-21T03:11:18;16.70;67.00
58363;DHT22;54977;51.510;7.522;2022-08-21T03:16:21;16.60;67.00
58363;DHT22;54977;51.510;7.522;2022-08-21T03:21:23;16.60;67.30
58363;DHT22;54977;51.510;7.522;2022-08-21T03:26:26;16.40;67.60
58363;DHT22;54977;51.510;7.522;2022-08-21T03:31:28;16.40;68.00
58363;DHT22;54977;51.510;7.522;2022-08-21T03:36:32;16.30;67.90
58363;DHT22;54977;51.510;7.522;2022-08-21T03:41:35;16.40;67.80
58363;DHT22;54977;51.510;7.522;2022-08-21T03:46:37;16.30;68.10
58363;DHT22;54977;51.510;7.522;2022-08-21T03:51:40;16.20;68.90
58363;DHT22;54977;51.510;7.522;2022-08-21T03:56:44;16.20;68.10
58363;DHT22;54977;51.510;7.522;2022-08-21T04:01:52;16.20;68.30
58363;DHT22;54977;51.510;7.522;2022-08-21T04:06:54;16.20;68.30
58363;DHT22;54977;51.510;7.522;2022-08-21T04:11:58;16.20;68.70
58363;DHT22;54977;51.510;7.522;2022-08-21T04:17:01;16.10;68.90
58363;DHT22;54977;51.510;7.522;2022-08-21T04:22:02;16.10;68.60
58363;DHT22;54977;51.510;7.522;2022-08-21T04:27:06;16.00;68.80
58363;DHT22;54977;51.510;7.522;2022-08-21T04:32:08;15.90;69.20
58363;DHT22;54977;51.510;7.522;2022-08-21T04:37:09;15.90;69.00
58363;DHT22;54977;51.510;7.522;2022-08-21T04:42:12;15.90;68.80
58363;DHT22;54977;51.510;7.522;2022-08-21T04:47:14;15.90;68.90
58363;DHT22;54977;51.510;7.522;2022-08-21T04:52:20;15.90;69.00
58363;DHT22;54977;51.510;7.522;2022-08-21T04:57:24;15.80;68.60
58363;DHT22;54977;51.510;7.522;2022-08-21T05:02:27;15.90;68.40
58363;DHT22;54977;51.510;7.522;2022-08-21T05:07:30;15.80;69.00
58363;DHT22;54977;51.510;7.522;2022-08-21T05:12:34;15.90;68.80
58363;DHT22;54977;51.510;7.522;2022-08-21T05:17:37;15.90;68.50
58363;DHT22;54977;51.510;7.522;2022-08-21T05:22:39;16.00;68.50
58363;DHT22;54977;51.510;7.522;2022-08-21T05:27:42;16.00;68.80
58363;DHT22;54977;51.510;7.522;2022-08-21T05:32:44;16.10;68.60
58363;DHT22;54977;51.510;7.522;2022-08-21T05:37:46;16.10;68.50
58363;DHT22;54977;51.510;7.522;2022-08-21T05:42:49;16.10;68.80
58363;DHT22;54977;51.510;7.522;2022-08-21T05:47:51;16.30;68.50
58363;DHT22;54977;51.510;7.522;2022-08-21T05:52:53;16.30;68.70
58363;DHT22;54977;51.510;7.522;2022-08-21T05:57:56;16.40;68.50
58363;DHT22;54977;51.510;7.522;2022-08-21T06:02:59;16.50;68.30
58363;DHT22;54977;51.510;7.522;2022-08-21T06:08:01;16.70;68.60
58363;DHT22;54977;51.510;7.522;2022-08-21T06:13:05;16.90;67.80
58363;DHT22;54977;51.510;7.522;2022-08-21T06:18:07;17.00;67.40
58363;DHT22;54977;51.510;7.522;2022-08-21T06:23:09;17.20;67.10
58363;DHT22;54977;51.510;7.522;2022-08-21T06:28:12;17.40;66.70
58363;DHT22;54977;51.510;7.522;2022-08-21T06:33:14;17.50;66.10
58363;DHT22;54977;51.510;7.522;2022-08-21T06:38:16;17.70;65.80
58363;DHT22;54977;51.510;7.522;2022-08-21T06:43:19;18.00;64.80
58363;DHT22;54977;51.510;7.522;2022-08-21T06:48:21;18.40;64.20
58363;DHT22;54977;51.510;7.522;2022-08-21T06:53:23;19.10;62.10
58363;DHT22;54977;51.510;7.522;2022-08-21T06:58:26;19.20;61.30
58363;DHT22;54977;51.510;7.522;2022-08-21T07:03:30;19.60;61.10
58363;DHT22;54977;51.510;7.522;2022-08-21T07:08:32;20.00;59.70
58363;DHT22;54977;51.510;7.522;2022-08-21T07:13:36;20.10;58.20
58363;DHT22;54977;51.510;7.522;2022-08-21T07:18:38;20.10;57.40
58363;DHT22;54977;51.510;7.522;2022-08-21T07:23:42;20.20;57.80
58363;DHT22;54977;51.510;7.522;2022-08-21T07:28:48;20.20;57.80
58363;DHT22;54977;51.510;7.522;2022-08-21T07:33:50;20.30;56.90
58363;DHT22;54977;51.510;7.522;2022-08-21T07:38:52;20.40;57.10
58363;DHT22;54977;51.510;7.522;2022-08-21T07:43:55;20.50;57.20
58363;DHT22;54977;51.510;7.522;2022-08-21T07:48:57;20.70;57.20
58363;DHT22;54977;51.510;7.522;2022-08-21T07:54:00;21.00;56.40
58363;DHT22;54977;51.510;7.522;2022-08-21T07:59:03;21.50;55.00
58363;DHT22;54977;51.510;7.522;2022-08-21T08:04:05;21.80;53.80
58363;DHT22;54977;51.510;7.522;2022-08-21T08:09:07;22.00;51.80
58363;DHT22;54977;51.510;7.522;2022-08-21T08:14:10;21.90;51.30
58363;DHT22;54977;51.510;7.522;2022-08-21T08:19:12;21.80;51.00
58363;DHT22;54977;51.510;7.522;2022-08-21T08:24:14;21.90;50.60
58363;DHT22;54977;51.510;7.522;2022-08-21T08:29:17;22.40;49.90
58363;DHT22;54977;51.510;7.522;2022-08-21T08:34:19;22.50;49.30
58363;DHT22;54977;51.510;7.522;2022-08-21T08:39:22;22.50;49.00
58363;DHT22;54977;51.510;7.522;2022-08-21T08:44:25;22.50;49.10
58363;DHT22;54977;51.510;7.522;2022-08-21T08:49:31;22.70;48.40
58363;DHT22;54977;51.510;7.522;2022-08-21T08:54:40;22.70;48.50
58363;DHT22;54977;51.510;7.522;2022-08-21T08:59:48;22.90;48.80
58363;DHT22;54977;51.510;7.522;2022-08-21T09:04:51;23.20;46.80
58363;DHT22;54977;51.510;7.522;2022-08-21T09:10:04;23.20;45.60
58363;DHT22;54977;51.510;7.522;2022-08-21T09:15:15;22.90;44.50
58363;DHT22;54977;51.510;7.522;2022-08-21T09:20:32;22.80;43.70
58363;DHT22;54977;51.510;7.522;2022-08-21T09:25:42;22.70;44.20
58363;DHT22;54977;51.510;7.522;2022-08-21T09:30:50;23.00;44.60
58363;DHT22;54977;51.510;7.522;2022-08-21T09:35:56;23.30;43.90
58363;DHT22;54977;51.510;7.522;2022-08-21T09:41:02;23.50;42.90
58363;DHT22;54977;51.510;7.522;2022-08-21T09:46:08;23.70;42.70
58363;DHT22;54977;51.510;7.522;2022-08-21T09:51:13;23.70;42.40
58363;DHT22;54977;51.510;7.522;2022-08-21T09:56:31;24.10;41.30
58363;DHT22;54977;51.510;7.522;2022-08-21T10:01:53;24.50;40.80
58363;DHT22;54977;51.510;7.522;2022-08-21T10:07:06;24.30;40.30
58363;DHT22;54977;51.510;7.522;2022-08-21T10:12:19;24.00;40.10
58363;DHT22;54977;51.510;7.522;2022-08-21T10:17:29;24.20;40.90
58363;DHT22;54977;51.510;7.522;2022-08-21T10:22:38;24.50;39.60
58363;DHT22;54977;51.510;7.522;2022-08-21T10:27:51;24.00;40.90
58363;DHT22;54977;51.510;7.522;2022-08-21T10:33:08;24.00;41.90
58363;DHT22;54977;51.510;7.522;2022-08-21T10:44:02;23.90;40.30
58363;DHT22;54977;51.510;7.522;2022-08-21T10:49:20;23.90;41.00
58363;DHT22;54977;51.510;7.522;2022-08-21T10:54:29;23.80;40.30
58363;DHT22;54977;51.510;7.522;2022-08-21T10:59:38;23.80;40.40
58363;DHT22;54977;51.510;7.522;2022-08-21T11:04:48;24.00;41.00
58363;DHT22;54977;51.510;7.522;2022-08-21T11:09:53;24.10;40.20
58363;DHT22;54977;51.510;7.522;2022-08-21T11:14:59;24.00;39.90
58363;DHT22;54977;51.510;7.522;2022-08-21T11:20:10;24.00;39.80
58363;DHT22;54977;51.510;7.522;2022-08-21T11:25:17;24.10;40.30
58363;DHT22;54977;51.510;7.522;2022-08-21T11:30:26;24.20;39.50
58363;DHT22;54977;51.510;7.522;2022-08-21T11:35:34;24.20;38.60
58363;DHT22;54977;51.510;7.522;2022-08-21T11:40:54;24.50;39.00
58363;DHT22;54977;51.510;7.522;2022-08-21T11:46:06;24.80;38.20
58363;DHT22;54977;51.510;7.522;2022-08-21T11:51:16;25.10;37.60
58363;DHT22;54977;51.510;7.522;2022-08-21T11:56:25;25.20;37.50
58363;DHT22;54977;51.510;7.522;2022-08-21T12:01:32;25.30;37.30
58363;DHT22;54977;51.510;7.522;2022-08-21T12:06:38;25.80;36.10
58363;DHT22;54977;51.510;7.522;2022-08-21T12:11:48;25.90;34.70
58363;DHT22;54977;51.510;7.522;2022-08-21T12:16:50;25.80;35.60
58363;DHT22;54977;51.510;7.522;2022-08-21T12:21:59;26.20;35.40
58363;DHT22;54977;51.510;7.522;2022-08-21T12:27:39;26.80;34.50
58363;DHT22;54977;51.510;7.522;2022-08-21T12:32:44;27.20;35.00
58363;DHT22;54977;51.510;7.522;2022-08-21T12:37:52;27.10;32.00
58363;DHT22;54977;51.510;7.522;2022-08-21T12:43:00;27.40;33.40
58363;DHT22;54977;51.510;7.522;2022-08-21T12:48:07;28.80;31.90
58363;DHT22;54977;51.510;7.522;2022-08-21T12:53:23;29.70;29.90
58363;DHT22;54977;51.510;7.522;2022-08-21T12:58:28;31.30;29.30
58363;DHT22;54977;51.510;7.522;2022-08-21T13:03:31;32.70;27.00
58363;DHT22;54977;51.510;7.522;2022-08-21T13:08:38;34.60;26.00
58363;DHT22;54977;51.510;7.522;2022-08-21T13:13:42;35.80;25.60
58363;DHT22;54977;51.510;7.522;2022-08-21T13:18:54;36.70;24.60
58363;DHT22;54977;51.510;7.522;2022-08-21T13:24:13;37.30;24.50
58363;DHT22;54977;51.510;7.522;2022-08-21T13:29:17;37.70;23.20
58363;DHT22;54977;51.510;7.522;2022-08-21T13:34:21;37.00;23.30
58363;DHT22;54977;51.510;7.522;2022-08-21T13:39:26;37.30;23.50
58363;DHT22;54977;51.510;7.522;2022-08-21T13:44:34;37.80;23.10
58363;DHT22;54977;51.510;7.522;2022-08-21T13:49:39;36.80;23.60
58363;DHT22;54977;51.510;7.522;2022-08-21T13:54:43;35.60;23.90
58363;DHT22;54977;51.510;7.522;2022-08-21T13:59:45;34.40;24.90
58363;DHT22;54977;51.510;7.522;2022-08-21T14:04:51;35.50;24.60
58363;DHT22;54977;51.510;7.522;2022-08-21T14:10:00;36.20;23.60
58363;DHT22;54977;51.510;7.522;2022-08-21T14:15:04;35.50;23.70
58363;DHT22;54977;51.510;7.522;2022-08-21T14:20:09;35.40;23.50
58363;DHT22;54977;51.510;7.522;2022-08-21T14:25:15;33.60;24.10
58363;DHT22;54977;51.510;7.522;2022-08-21T14:30:30;31.80;25.50
58363;DHT22;54977;51.510;7.522;2022-08-21T14:35:32;31.00;26.90
58363;DHT22;54977;51.510;7.522;2022-08-21T14:40:35;31.90;26.80
58363;DHT22;54977;51.510;7.522;2022-08-21T14:45:37;32.30;26.40
58363;DHT22;54977;51.510;7.522;2022-08-21T14:50:41;31.00;26.80
58363;DHT22;54977;51.510;7.522;2022-08-21T14:55:44;29.70;28.60
58363;DHT22;54977;51.510;7.522;2022-08-21T15:01:05;28.80;29.50
58363;DHT22;54977;51.510;7.522;2022-08-21T15:06:08;27.80;30.20
58363;DHT22;54977;51.510;7.522;2022-08-21T15:11:16;27.30;30.40
58363;DHT22;54977;51.510;7.522;2022-08-21T15:16:19;27.00;31.80
58363;DHT22;54977;51.510;7.522;2022-08-21T15:21:21;26.70;31.50
58363;DHT22;54977;51.510;7.522;2022-08-21T15:26:25;26.70;32.10
58363;DHT22;54977;51.510;7.522;2022-08-21T15:31:27;26.50;31.50
58363;DHT22;54977;51.510;7.522;2022-08-21T15:36:29;26.40;32.70
58363;DHT22;54977;51.510;7.522;2022-08-21T15:41:32;26.40;33.10
58363;DHT22;54977;51.510;7.522;2022-08-21T15:46:34;26.20;33.70
58363;DHT22;54977;51.510;7.522;2022-08-21T15:51:36;26.90;32.90
58363;DHT22;54977;51.510;7.522;2022-08-21T15:56:41;27.70;31.20
58363;DHT22;54977;51.510;7.522;2022-08-21T16:01:47;28.00;31.80
58363;DHT22;54977;51.510;7.522;2022-08-21T16:06:50;27.70;31.60
58363;DHT22;54977;51.510;7.522;2022-08-21T16:11:53;28.00;31.00
58363;DHT22;54977;51.510;7.522;2022-08-21T16:16:55;28.40;30.40
58363;DHT22;54977;51.510;7.522;2022-08-21T16:21:57;28.60;29.60
58363;DHT22;54977;51.510;7.522;2022-08-21T16:27:01;28.50;30.70
58363;DHT22;54977;51.510;7.522;2022-08-21T16:32:03;29.20;30.60
58363;DHT22;54977;51.510;7.522;2022-08-21T16:37:06;29.60;30.20
58363;DHT22;54977;51.510;7.522;2022-08-21T16:42:12;28.90;30.00
58363;DHT22;54977;51.510;7.522;2022-08-21T16:47:15;27.80;30.70
58363;DHT22;54977;51.510;7.522;2022-08-21T16:52:17;27.30;31.90
58363;DHT22;54977;51.510;7.522;2022-08-21T16:57:20;26.90;32.70
58363;DHT22;54977;51.510;7.522;2022-08-21T17:02:28;26.50;34.00
58363;DHT22;54977;51.510;7.522;2022-08-21T17:07:30;26.30;34.40
58363;DHT22;54977;51.510;7.522;2022-08-21T17:12:33;26.00;34.50
58363;DHT22;54977;51.510;7.522;2022-08-21T17:17:36;25.90;35.20
58363;DHT22;54977;51.510;7.522;2022-08-21T17:22:38;25.60;35.80
58363;DHT22;54977;51.510;7.522;2022-08-21T17:27:42;25.30;36.50
58363;DHT22;54977;51.510;7.522;2022-08-21T17:32:45;25.10;36.30
58363;DHT22;54977;51.510;7.522;2022-08-21T17:37:47;24.90;36.70
58363;DHT22;54977;51.510;7.522;2022-08-21T17:42:51;24.40;38.10
58363;DHT22;54977;51.510;7.522;2022-08-21T17:47:53;24.00;37.80
58363;DHT22;54977;51.510;7.522;2022-08-21T17:52:55;24.00;39.10
58363;DHT22;54977;51.510;7.522;2022-08-21T17:57:58;23.80;39.80
58363;DHT22;54977;51.510;7.522;2022-08-21T18:03:04;23.60;40.00
58363;DHT22;54977;51.510;7.522;2022-08-21T18:08:08;23.30;40.70
58363;DHT22;54977;51.510;7.522;2022-08-21T18:13:13;23.10;40.80
58363;DHT22;54977;51.510;7.522;2022-08-21T18:18:16;22.90;41.20
58363;DHT22;54977;51.510;7.522;2022-08-21T18:23:18;22.70;41.70
58363;DHT22;54977;51.510;7.522;2022-08-21T18:28:21;22.50;41.90
58363;DHT22;54977;51.510;7.522;2022-08-21T18:33:24;22.40;42.40
58363;DHT22;54977;51.510;7.522;2022-08-21T18:38:26;22.10;42.60
58363;DHT22;54977;51.510;7.522;2022-08-21T18:43:29;21.90;42.90
58363;DHT22;54977;51.510;7.522;2022-08-21T18:48:31;21.90;43.40
58363;DHT22;54977;51.510;7.522;2022-08-21T18:53:33;21.70;43.80
58363;DHT22;54977;51.510;7.522;2022-08-21T18:58:36;21.50;44.60
58363;DHT22;54977;51.510;7.522;2022-08-21T19:03:38;21.30;45.20
58363;DHT22;54977;51.510;7.522;2022-08-21T19:08:40;21.20;45.60
58363;DHT22;54977;51.510;7.522;2022-08-21T19:13:44;21.10;46.10
58363;DHT22;54977;51.510;7.522;2022-08-21T19:18:47;21.00;46.50
58363;DHT22;54977;51.510;7.522;2022-08-21T19:23:48;20.90;47.00
58363;DHT22;54977;51.510;7.522;2022-08-21T19:28:54;20.80;47.90
58363;DHT22;54977;51.510;7.522;2022-08-21T19:34:00;20.70;48.40
58363;DHT22;54977;51.510;7.522;2022-08-21T19:39:02;20.60;48.70
58363;DHT22;54977;51.510;7.522;2022-08-21T19:44:08;20.40;48.80
58363;DHT22;54977;51.510;7.522;2022-08-21T19:49:13;20.30;49.10
58363;DHT22;54977;51.510;7.522;2022-08-21T19:54:18;20.20;49.30
58363;DHT22;54977;51.510;7.522;2022-08-21T19:59:22;20.00;49.70
58363;DHT22;54977;51.510;7.522;2022-08-21T20:04:25;19.90;50.00
58363;DHT22;54977;51.510;7.522;2022-08-21T20:09:27;19.80;50.30
58363;DHT22;54977;51.510;7.522;2022-08-21T20:14:30;19.70;50.70
58363;DHT22;54977;51.510;7.522;2022-08-21T20:19:33;19.60;51.00
58363;DHT22;54977;51.510;7.522;2022-08-21T20:24:35;19.50;50.60
58363;DHT22;54977;51.510;7.522;2022-08-21T20:29:38;19.50;50.70
58363;DHT22;54977;51.510;7.522;2022-08-21T20:34:40;19.50;49.30
58363;DHT22;54977;51.510;7.522;2022-08-21T20:39:42;19.60;48.60
58363;DHT22;54977;51.510;7.522;2022-08-21T20:44:46;19.60;49.30
58363;DHT22;54977;51.510;7.522;2022-08-21T20:49:52;19.60;50.80
58363;DHT22;54977;51.510;7.522;2022-08-21T20:54:59;19.60;50.80
58363;DHT22;54977;51.510;7.522;2022-08-21T21:00:08;19.50;50.90
58363;DHT22;54977;51.510;7.522;2022-08-21T21:05:14;19.40;51.60
58363;DHT22;54977;51.510;7.522;2022-08-21T21:10:24;19.50;51.60
58363;DHT22;54977;51.510;7.522;2022-08-21T21:15:30;19.40;51.90
58363;DHT22;54977;51.510;7.522;2022-08-21T21:20:37;19.40;51.80
58363;DHT22;54977;51.510;7.522;2022-08-21T21:25:47;19.30;52.10
58363;DHT22;54977;51.510;7.522;2022-08-21T21:30:52;19.30;51.70
58363;DHT22;54977;51.510;7.522;2022-08-21T21:35:58;19.10;51.60
58363;DHT22;54977;51.510;7.522;2022-08-21T21:41:09;19.30;52.00
58363;DHT22;54977;51.510;7.522;2022-08-21T21:46:22;19.30;51.50
58363;DHT22;54977;51.510;7.522;2022-08-21T21:51:38;19.20;51.90
58363;DHT22;54977;51.510;7.522;2022-08-21T21:56:47;19.20;52.90
58363;DHT22;54977;51.510;7.522;2022-08-21T22:02:01;19.20;52.90
58363;DHT22;54977;51.510;7.522;2022-08-21T22:07:08;19.30;52.90
58363;DHT22;54977;51.510;7.522;2022-08-21T22:12:29;19.30;53.00
58363;DHT22;54977;51.510;7.522;2022-08-21T22:17:42;19.20;53.20
58363;DHT22;54977;51.510;7.522;2022-08-21T22:22:47;19.10;53.30
58363;DHT22;54977;51.510;7.522;2022-08-21T22:28:03;19.20;53.30
58363;DHT22;54977;51.510;7.522;2022-08-21T22:33:11;19.20;53.50
58363;DHT22;54977;51.510;7.522;2022-08-21T22:38:17;19.20;54.20
58363;DHT22;54977;51.510;7.522;2022-08-21T22:43:21;19.20;54.40
58363;DHT22;54977;51.510;7.522;2022-08-21T22:48:27;19.10;55.00
58363;DHT22;54977;51.510;7.522;2022-08-21T22:53:33;19.10;55.20
58363;DHT22;54977;51.510;7.522;2022-08-21T22:58:38;19.10;55.30
58363;DHT22;54977;51.510;7.522;2022-08-21T23:03:44;18.90;56.40
58363;DHT22;54977;51.510;7.522;2022-08-21T23:08:47;18.80;57.10
58363;DHT22;54977;51.510;7.522;2022-08-21T23:13:51;19.00;56.80
58363;DHT22;54977;51.510;7.522;2022-08-21T23:18:59;19.10;56.60
58363;DHT22;54977;51.510;7.522;2022-08-21T23:24:14;19.00;56.80
58363;DHT22;54977;51.510;7.522;2022-08-21T23:29:24;19.00;56.70
58363;DHT22;54977;51.510;7.522;2022-08-21T23:34:36;18.90;56.80
58363;DHT22;54977;51.510;7.522;2022-08-21T23:39:47;18.80;57.20
58363;DHT22;54977;51.510;7.522;2022-08-21T23:44:59;18.70;57.30
58363;DHT22;54977;51.510;7.522;2022-08-21T23:50:10;18.50;58.50
58363;DHT22;54977;51.510;7.522;2022-08-21T23:55:32;18.40;59.10
